No requiere especial atencion con respecto al clima.   -   No hay Alarmas

Informes de METAR cercanos

 

LEXJ - Santander/Parayas, Spain
Distance from station: ESE 6km
Actualización: 22/10/2017 06:00
Muy nuboso
Muy nuboso
 Viento del SSO
Viento: SSO 9 km/h
Temperatura: 13°C
Rocío: 11°C
Humedad: 88%
Barómetro: 1028 hPa
Clouds: Muy nuboso
Visibility: 10 km
Cloud details: Few Clouds 853 m
Parcialmente nuboso 1372 m
Muy nuboso 2134 m
2017/10/22 04:00 LEXJ 220400Z 21005KT 9999 FEW028 SCT045 BKN070 13/11 Q1028
LEBB - Bilbao/Sondica, Spain
Distance from station: ESE 80km
Actualización: 22/10/2017 06:00
Muy nuboso
Muy nuboso
 Viento del varies
Viento: varies 2 km/h
Temperatura: 13°C
Rocío: 11°C
Humedad: 88%
Barómetro: 1028 hPa
Clouds: Muy nuboso
Visibility: 10 km
Cloud details: Few Clouds 762 m
Parcialmente nuboso 1067 m
Muy nuboso 1524 m
2017/10/22 04:00 LEBB 220400Z VRB01KT 9999 FEW025 SCT035 BKN050 13/11 Q1028 TEMPO SHRA SCT030TCU
 
LEBL - Barcelona Airpor, Spain
Distance from station: ESE 726km
Actualización: 22/10/2017 06:00
Muy nuboso
Muy nuboso
 Viento del NNO
Viento: NNO 20 km/h
Temperatura: 17°C
Rocío: 9°C
Humedad: 59%
Barómetro: 1023 hPa
Clouds: Muy nuboso
Visibility: 10 km
Cloud details: Few Clouds 457 m
Few Clouds 610 m
Muy nuboso 914 m
2017/10/22 04:00 LEBL 220400Z 34011KT 9999 FEW015 FEW020CB BKN030 17/09 Q1023 NOSIG
LEMD - Madrid/Barajas, Spain
Distance from station: S 325km
Actualización: 22/10/2017 06:00
Despejado
Despejado
 Viento del NNO
Viento: NNO 9 km/h
Temperatura: 9°C
Wind Chill: 7°C
Rocío: 6°C
Humedad: 82%
Barómetro: 1026 hPa
Resumen: Despejado
Visibility: greater than 10 km
2017/10/22 04:00 LEMD 220400Z 33005KT 310V010 CAVOK 09/06 Q1026 NOSIG
 
LPPT - Lisbon/Portela, Portugal
Distance from station: SO 663km
Actualización: 22/10/2017 06:00
Despejado
Despejado
 Viento del NNO
Viento: NNO 17 km/h
Temperatura: 13°C
Rocío: 9°C
Humedad: 77%
Barómetro: 1027 hPa
Resumen: Despejado
Visibility: greater than 10 km
2017/10/22 04:00 LPPT 220400Z 34009KT CAVOK 13/09 Q1027
LECO - La Coruna/Alvedr, Spain
Distance from station: O 349km
Actualización: 22/10/2017 06:00
Despejado
Despejado
 Viento del S
Viento: S 6 km/h
Temperatura: 8°C
Rocío: 7°C
Humedad: 93%
Barómetro: 1030 hPa
Resumen: Despejado
Visibility: greater than 10 km
2017/10/22 04:00 LECO 220400Z 17003KT CAVOK 08/07 Q1030 NOSIG
 
LEST - Santiago/Labacol, Spain
Distance from station: O 358km
Actualización: 22/10/2017 06:00
Parcialmente nuboso
Parcialmente nuboso
 Viento del varies
Viento: varies 2 km/h
Temperatura: 6°C
Rocío: 6°C
Humedad: 100%
Barómetro: 1030 hPa
Clouds: Parcialmente nuboso
Visibility: 6 km
Cloud details: Few Clouds 884 m
Parcialmente nuboso 1280 m
2017/10/22 04:00 LEST 220400Z VRB01KT 6000 FEW029 SCT042 06/06 Q1030 NOSIG
EBBR - Brussels International Airport, Belgium
Distance from station: O 1339km
Actualización: 22/10/2017 06:20
Muy nuboso
Muy nuboso
 Viento del SO
Viento: SO 30 km/h
Temperatura: 10°C
Wind Chill: 7°C
Rocío: 8°C
Humedad: 88%
Barómetro: 1009 hPa
Clouds: Muy nuboso
Visibility: 10 km
Cloud details: Few Clouds 396 m
Muy nuboso 884 m
2017/10/22 04:20 EBBR 220420Z 22016KT 9999 FEW013TCU BKN029 10/08 Q1009 TEMPO 3500 SHRA BR BKN013TCU